Crookston, Minnesota
Current Conditions -  °F | °C
As of 5:34 PM on Wednesday 22 Oct 2014 (Local Time) from KCKN Reporting Station
Light Rain Light Rain  
Wind Chill: 61°   Ceiling: 4100
Heat Index: 61°   Visibility: 10mi
Dew Point: 48°   Wind: 8mph
Humidity: 63%   Direction: 230°SW
Pressure: 29.83"   Gusts: NA
Location:  47.77°N, 96.61°W
Report Text: KCKN 222234Z AUTO 23007KT 10SM -RA OVC041 16/09 A2983 RMK AO2
Loading
Personal Weather Stations






























Interactive Weather Map
Tropical Storm Tracking
New forecast layout! Learn more

10-Day Weather Forecast

Advertisements
Track Severe Weather on mobile